createdAt,value
2019-03-12T00:00:46.084Z,4.13
2019-03-12T00:03:15.583Z,4.09
2019-03-12T00:05:45.109Z,4.01
2019-03-12T00:08:14.620Z,4.01
2019-03-12T00:10:44.108Z,4.05
2019-03-12T00:13:13.608Z,3.95
2019-03-12T00:15:43.076Z,3.73
2019-03-12T00:18:12.563Z,3.73
2019-03-12T00:20:42.059Z,3.56
2019-03-12T00:23:11.528Z,3.59
2019-03-12T00:25:41.011Z,3.58
2019-03-12T00:28:10.512Z,3.48
2019-03-12T00:30:40.031Z,3.28
2019-03-12T00:33:09.510Z,3.05
2019-03-12T00:35:38.971Z,3.13
2019-03-12T00:38:08.495Z,3.05
2019-03-12T00:40:37.969Z,2.95
2019-03-12T00:43:07.420Z,2.87
2019-03-12T00:45:36.898Z,2.70
2019-03-12T00:48:06.382Z,2.77
2019-03-12T00:50:35.822Z,2.83
2019-03-12T00:53:05.360Z,2.77
2019-03-12T00:55:34.842Z,2.71
2019-03-12T00:58:04.337Z,2.72
2019-03-12T01:00:33.843Z,2.72
2019-03-12T01:03:03.345Z,2.71
2019-03-12T01:05:32.841Z,2.64
2019-03-12T01:08:02.316Z,2.70
2019-03-12T01:10:31.886Z,2.68
2019-03-12T01:13:01.445Z,2.80
2019-03-12T01:15:30.992Z,2.64
2019-03-12T01:18:00.548Z,2.56
2019-03-12T01:20:30.014Z,2.55
2019-03-12T01:22:59.521Z,2.59
2019-03-12T01:25:29.065Z,2.40
2019-03-12T01:27:58.611Z,2.38
2019-03-12T01:30:28.131Z,2.42
2019-03-12T01:32:57.600Z,2.33
2019-03-12T01:35:27.076Z,2.32
2019-03-12T01:37:56.603Z,2.40
2019-03-12T01:40:26.103Z,2.44
2019-03-12T01:42:55.602Z,2.46
2019-03-12T01:45:25.049Z,2.30
2019-03-12T01:47:54.519Z,2.41
2019-03-12T01:50:24.099Z,2.55
2019-03-12T01:52:53.641Z,2.65
2019-03-12T01:55:23.201Z,2.59
2019-03-12T01:57:52.672Z,2.54
2019-03-12T02:00:22.319Z,2.60
2019-03-12T02:02:51.837Z,2.50
2019-03-12T02:05:21.345Z,2.48
2019-03-12T02:07:50.854Z,2.51
2019-03-12T02:10:20.372Z,2.55
2019-03-12T02:12:49.900Z,2.49
2019-03-12T02:15:19.413Z,2.28
2019-03-12T02:17:48.987Z,2.23
2019-03-12T02:20:18.845Z,2.29
2019-03-12T02:22:48.334Z,2.29
2019-03-12T02:25:17.836Z,2.42
2019-03-12T02:27:47.341Z,2.50
2019-03-12T02:30:17.633Z,2.56
2019-03-12T02:32:47.157Z,2.58
2019-03-12T02:35:16.757Z,2.62
2019-03-12T02:37:46.226Z,2.55
2019-03-12T02:40:16.522Z,2.62
2019-03-12T02:42:46.002Z,2.61
2019-03-12T02:45:15.767Z,2.61
2019-03-12T02:47:47.012Z,2.54
2019-03-12T02:50:16.691Z,2.49
2019-03-12T02:52:46.204Z,2.55
2019-03-12T02:55:15.938Z,2.55
2019-03-12T02:57:45.709Z,2.55
2019-03-12T03:00:18.697Z,2.53
2019-03-12T03:02:48.333Z,2.42
2019-03-12T03:05:17.942Z,2.41
2019-03-12T03:07:58.874Z,2.44
2019-03-12T03:10:28.391Z,2.43
2019-03-12T03:12:57.899Z,2.38
2019-03-12T03:15:30.556Z,2.37
2019-03-12T03:18:00.076Z,2.35
2019-03-12T03:20:29.536Z,2.39
2019-03-12T03:22:59.122Z,2.42
2019-03-12T03:25:28.623Z,2.59
2019-03-12T03:27:58.114Z,2.60
2019-03-12T03:30:27.806Z,2.56
2019-03-12T03:32:57.417Z,2.61
2019-03-12T03:35:27.001Z,2.64
2019-03-12T03:37:56.505Z,2.63
2019-03-12T03:40:26.070Z,2.61
2019-03-12T03:42:55.594Z,2.54
2019-03-12T03:45:25.075Z,2.53
2019-03-12T03:47:54.576Z,2.62
2019-03-12T03:50:24.123Z,2.75
2019-03-12T03:52:53.576Z,2.76
2019-03-12T03:55:23.141Z,2.77
2019-03-12T03:57:52.694Z,2.67
2019-03-12T04:00:22.546Z,2.67
2019-03-12T04:02:52.136Z,2.58
2019-03-12T04:05:21.763Z,2.56
2019-03-12T04:07:53.857Z,2.51
2019-03-12T04:10:23.314Z,2.33
2019-03-12T04:12:52.805Z,2.33
2019-03-12T04:15:22.709Z,2.37
2019-03-12T04:17:52.254Z,2.27
2019-03-12T04:20:21.758Z,2.25
2019-03-12T04:22:51.300Z,2.29
2019-03-12T04:25:20.908Z,2.31
2019-03-12T04:27:50.389Z,2.32
2019-03-12T04:30:19.904Z,2.29
2019-03-12T04:32:49.448Z,2.28
2019-03-12T04:35:19.756Z,2.35
2019-03-12T04:37:49.228Z,2.37
2019-03-12T04:40:18.787Z,2.26
2019-03-12T04:42:48.353Z,2.19
2019-03-12T04:45:17.838Z,2.20
2019-03-12T04:47:47.335Z,2.09
2019-03-12T04:50:17.056Z,2.04
2019-03-12T04:52:46.636Z,2.11
2019-03-12T04:55:16.201Z,2.12
2019-03-12T04:57:45.866Z,2.13
2019-03-12T05:00:16.726Z,2.14
2019-03-12T05:02:46.250Z,2.12
2019-03-12T05:05:15.786Z,2.15
2019-03-12T05:07:45.310Z,2.14
2019-03-12T05:10:15.644Z,2.20
2019-03-12T05:12:45.253Z,2.29
2019-03-12T05:15:15.175Z,2.39
2019-03-12T05:17:45.156Z,2.45
2019-03-12T05:20:15.175Z,2.36
2019-03-12T05:22:44.707Z,2.44
2019-03-12T05:25:14.846Z,2.43
2019-03-12T05:27:44.586Z,2.33
2019-03-12T05:30:16.179Z,2.31
2019-03-12T05:32:45.713Z,2.37
2019-03-12T05:35:15.361Z,2.38
2019-03-12T05:37:45.411Z,2.55
2019-03-12T05:40:15.187Z,2.51
2019-03-12T05:42:45.029Z,2.46
2019-03-12T05:45:14.647Z,2.46
2019-03-12T05:47:44.173Z,2.50
2019-03-12T05:50:14.019Z,2.55
2019-03-12T05:52:43.570Z,2.71
2019-03-12T05:55:14.509Z,2.61
2019-03-12T05:57:44.401Z,2.61
2019-03-12T06:00:15.015Z,2.66
2019-03-12T06:02:44.644Z,2.65
2019-03-12T06:05:14.308Z,2.62
2019-03-12T06:07:44.048Z,2.58
2019-03-12T06:10:14.023Z,2.54
2019-03-12T06:12:43.572Z,2.54
2019-03-12T06:15:13.616Z,2.54
2019-03-12T06:17:43.212Z,2.53
2019-03-12T06:20:12.871Z,2.50
2019-03-12T06:22:42.632Z,2.49
2019-03-12T06:25:12.184Z,2.51
2019-03-12T06:27:41.721Z,2.45
2019-03-12T06:30:12.158Z,2.41
2019-03-12T06:33:00.594Z,2.42
2019-03-12T06:35:43.541Z,2.46
2019-03-12T06:38:41.008Z,2.54
2019-03-12T06:41:35.522Z,2.52
2019-03-12T06:44:19.414Z,2.55
2019-03-12T06:47:07.948Z,2.58
2019-03-12T06:49:45.585Z,2.50
2019-03-12T06:52:24.906Z,2.58
2019-03-12T06:55:13.327Z,2.55
2019-03-12T06:58:35.893Z,2.58
2019-03-12T07:01:30.383Z,2.62
2019-03-12T07:04:15.095Z,2.57
2019-03-12T07:07:12.823Z,2.60
2019-03-12T07:10:01.473Z,2.68
2019-03-12T07:12:43.593Z,2.66
2019-03-12T07:15:28.677Z,2.68
2019-03-12T07:18:16.493Z,2.79
2019-03-12T07:20:59.916Z,2.84
2019-03-12T07:23:41.927Z,2.77
2019-03-12T07:26:36.613Z,2.88
2019-03-12T07:29:31.149Z,3.04
2019-03-12T07:32:19.589Z,3.06
2019-03-12T07:35:07.167Z,3.11
2019-03-12T07:38:03.312Z,3.07
2019-03-12T07:40:45.966Z,2.99
2019-03-12T07:43:26.103Z,2.88
2019-03-12T07:46:26.917Z,3.00
2019-03-12T07:49:27.426Z,2.86
2019-03-12T07:52:11.810Z,2.94
2019-03-12T07:55:15.593Z,2.91
2019-03-12T07:58:01.305Z,2.66
2019-03-12T08:00:43.939Z,2.75
2019-03-12T08:03:38.420Z,2.80
2019-03-12T08:06:19.463Z,2.89
2019-03-12T08:09:06.604Z,3.05
2019-03-12T08:11:47.809Z,3.00
2019-03-12T08:14:54.348Z,2.95
2019-03-12T08:17:41.902Z,2.84
2019-03-12T08:20:30.382Z,2.87
2019-03-12T08:23:31.347Z,3.09
2019-03-12T08:26:22.686Z,3.07
2019-03-12T08:29:11.207Z,3.08
2019-03-12T08:31:58.327Z,3.18
2019-03-12T08:34:47.855Z,3.13
2019-03-12T08:37:35.812Z,3.31
2019-03-12T08:40:14.621Z,3.37
2019-03-12T08:43:01.900Z,3.43
2019-03-12T08:45:56.193Z,3.43
2019-03-12T08:48:38.545Z,3.23
2019-03-12T08:51:30.409Z,3.40
2019-03-12T08:54:17.720Z,3.30
2019-03-12T08:57:18.533Z,3.05
2019-03-12T09:00:15.899Z,3.35
2019-03-12T09:03:01.304Z,3.59
2019-03-12T09:05:36.182Z,3.36
2019-03-12T09:08:23.576Z,3.56
2019-03-12T09:11:08.484Z,3.67
2019-03-12T09:13:56.965Z,3.62
2019-03-12T09:16:47.054Z,3.64
2019-03-12T09:19:29.540Z,3.37
2019-03-12T09:22:07.025Z,3.32
2019-03-12T09:24:54.189Z,3.13
2019-03-12T09:27:41.200Z,2.96
2019-03-12T09:30:36.057Z,3.02
2019-03-12T09:33:12.152Z,3.12
2019-03-12T09:36:09.816Z,3.10
2019-03-12T09:38:44.420Z,3.30
2019-03-12T09:41:20.058Z,3.60
2019-03-12T09:43:58.369Z,3.74
2019-03-12T09:46:49.683Z,3.85
2019-03-12T09:49:36.845Z,3.95
2019-03-12T09:52:14.508Z,3.85
2019-03-12T09:55:05.820Z,4.07
2019-03-12T09:57:54.337Z,3.99
2019-03-12T10:00:29.911Z,4.21
2019-03-12T10:03:16.998Z,4.09
2019-03-12T10:05:57.191Z,4.11
2019-03-12T10:08:54.677Z,4.06
2019-03-12T10:11:42.460Z,4.17
2019-03-12T10:14:31.088Z,4.22
2019-03-12T10:17:25.551Z,4.42
2019-03-12T10:20:14.096Z,4.48
2019-03-12T10:22:55.487Z,4.21
2019-03-12T10:25:47.275Z,4.10
2019-03-12T10:28:39.024Z,4.25
2019-03-12T10:31:25.658Z,4.32
2019-03-12T10:34:28.787Z,4.28
2019-03-12T10:36:56.399Z,4.45
2019-03-12T10:40:05.598Z,4.36
2019-03-12T10:42:40.271Z,4.29
2019-03-12T10:45:32.342Z,4.47
2019-03-12T10:48:01.871Z,4.56
2019-03-12T10:50:31.360Z,4.63
2019-03-12T10:53:01.029Z,4.73
2019-03-12T10:55:30.571Z,4.80
2019-03-12T10:58:00.226Z,4.79
2019-03-12T11:00:29.988Z,4.88
2019-03-12T11:02:59.473Z,4.89
2019-03-12T11:05:29.135Z,5.00
2019-03-12T11:07:58.657Z,4.98
2019-03-12T11:10:28.476Z,4.77
2019-03-12T11:12:57.975Z,4.70
2019-03-12T11:15:27.717Z,4.70
2019-03-12T11:17:57.252Z,4.69
2019-03-12T11:20:26.803Z,4.67
2019-03-12T11:22:56.465Z,4.74
2019-03-12T11:25:28.091Z,4.74
2019-03-12T11:27:57.318Z,4.75
2019-03-12T11:30:26.920Z,4.84
2019-03-12T11:32:56.601Z,4.98
2019-03-12T11:35:26.197Z,5.15
2019-03-12T11:37:55.737Z,5.39
2019-03-12T11:40:30.376Z,5.39
2019-03-12T11:42:56.878Z,5.56
2019-03-12T11:45:36.230Z,5.56
2019-03-12T11:47:57.826Z,5.44
2019-03-12T11:50:27.371Z,5.38
2019-03-12T11:52:59.386Z,5.30
2019-03-12T11:55:28.276Z,5.26
2019-03-12T11:57:57.896Z,5.24
2019-03-12T12:00:30.692Z,5.37
2019-03-12T12:03:00.826Z,5.51
2019-03-12T12:05:30.499Z,5.48
2019-03-12T12:08:00.217Z,5.38
2019-03-12T12:10:30.121Z,5.17
2019-03-12T12:12:59.669Z,5.08
2019-03-12T12:15:29.330Z,5.09
2019-03-12T12:17:58.886Z,5.13
2019-03-12T12:20:30.343Z,5.12
2019-03-12T12:22:59.876Z,5.09
2019-03-12T12:25:29.409Z,5.09
2019-03-12T12:27:58.999Z,4.96
2019-03-12T12:30:28.543Z,4.87
2019-03-12T12:32:58.081Z,4.88
2019-03-12T12:35:27.645Z,4.97
2019-03-12T12:37:57.170Z,4.93
2019-03-12T12:40:26.689Z,4.96
2019-03-12T12:42:56.180Z,4.93
2019-03-12T12:45:26.144Z,4.91
2019-03-12T12:47:55.732Z,4.89
2019-03-12T12:50:25.239Z,4.92
2019-03-12T12:52:54.780Z,5.02
2019-03-12T12:55:24.304Z,5.04
2019-03-12T12:57:53.816Z,4.94
2019-03-12T13:00:23.559Z,4.93
2019-03-12T13:02:53.037Z,5.04
2019-03-12T13:05:22.714Z,5.08
2019-03-12T13:07:52.177Z,5.03
2019-03-12T13:10:25.396Z,5.08
2019-03-12T13:12:54.884Z,5.03
2019-03-12T13:15:24.828Z,5.16
2019-03-12T13:17:54.389Z,5.04
2019-03-12T13:20:24.019Z,4.99
2019-03-12T13:22:53.639Z,5.08
2019-03-12T13:25:23.158Z,5.15
2019-03-12T13:27:52.730Z,5.23
2019-03-12T13:30:22.439Z,5.20
2019-03-12T13:32:51.984Z,5.20
2019-03-12T13:35:21.607Z,5.35
2019-03-12T13:37:51.427Z,5.49
2019-03-12T13:40:21.205Z,5.59
2019-03-12T13:42:50.971Z,5.73
2019-03-12T13:45:20.755Z,5.80
2019-03-12T13:47:50.280Z,5.72
2019-03-12T13:50:19.809Z,5.52
2019-03-12T13:52:49.370Z,5.11
2019-03-12T13:55:19.127Z,4.97
2019-03-12T13:57:48.715Z,4.59
2019-03-12T14:00:19.723Z,4.34
2019-03-12T14:02:49.352Z,4.31
2019-03-12T14:05:18.937Z,4.31
2019-03-12T14:07:48.565Z,4.21
2019-03-12T14:10:19.812Z,4.33
2019-03-12T14:12:49.497Z,4.12
2019-03-12T14:15:27.189Z,3.99
2019-03-12T14:17:56.932Z,3.89
2019-03-12T14:20:43.705Z,3.90
2019-03-12T14:23:15.674Z,3.93
2019-03-12T14:25:45.458Z,3.95
2019-03-12T14:28:15.124Z,4.03
2019-03-12T14:30:45.665Z,4.11
2019-03-12T14:33:15.295Z,4.13
2019-03-12T14:35:51.431Z,4.11
2019-03-12T14:38:16.558Z,4.26
2019-03-12T14:40:46.057Z,4.21
2019-03-12T14:43:15.686Z,4.38
2019-03-12T14:45:49.137Z,4.44
2019-03-12T14:48:59.671Z,4.46
2019-03-12T14:51:48.275Z,4.42
2019-03-12T14:54:17.846Z,4.56
2019-03-12T14:56:47.375Z,4.60
2019-03-12T14:59:16.882Z,4.56
2019-03-12T15:01:46.562Z,4.36
2019-03-12T15:04:16.072Z,4.35
2019-03-12T15:06:45.586Z,4.47
2019-03-12T15:09:16.272Z,4.39
2019-03-12T15:11:45.838Z,4.36
2019-03-12T15:14:15.312Z,4.39
2019-03-12T15:16:44.805Z,4.19
2019-03-12T15:19:14.368Z,4.12
2019-03-12T15:21:43.914Z,4.23
2019-03-12T15:24:13.442Z,4.41
2019-03-12T15:26:43.012Z,4.29
2019-03-12T15:29:12.498Z,4.20
2019-03-12T15:31:41.984Z,4.00
2019-03-12T15:34:11.513Z,4.12
2019-03-12T15:36:41.030Z,4.07
2019-03-12T15:39:11.715Z,4.00
2019-03-12T15:41:41.176Z,3.87
2019-03-12T15:44:10.740Z,3.86
2019-03-12T15:46:40.325Z,3.89
2019-03-12T15:49:09.820Z,3.74
2019-03-12T15:51:39.364Z,3.80
2019-03-12T15:54:09.017Z,3.79
2019-03-12T15:56:38.536Z,3.80
2019-03-12T15:59:08.088Z,3.85
2019-03-12T16:01:37.635Z,3.82
2019-03-12T16:04:07.172Z,3.81
2019-03-12T16:06:36.686Z,3.81
2019-03-12T16:09:08.465Z,3.60
2019-03-12T16:11:37.985Z,3.63
2019-03-12T16:14:07.587Z,3.71
2019-03-12T16:16:37.172Z,3.70
2019-03-12T16:19:06.734Z,3.86
2019-03-12T16:21:36.318Z,3.94
2019-03-12T16:24:05.861Z,3.64
2019-03-12T16:26:35.438Z,3.86
2019-03-12T16:29:04.975Z,3.88
2019-03-12T16:31:34.585Z,3.98
2019-03-12T16:34:04.112Z,3.88
2019-03-12T16:36:33.677Z,3.87
2019-03-12T16:39:04.626Z,3.79
2019-03-12T16:41:34.119Z,3.67
2019-03-12T16:44:04.061Z,3.62
2019-03-12T16:46:33.609Z,3.74
2019-03-12T16:49:03.175Z,3.72
2019-03-12T16:51:32.777Z,3.66
2019-03-12T16:54:05.247Z,3.58
2019-03-12T16:56:44.649Z,3.68
2019-03-12T16:59:08.114Z,3.80
2019-03-12T17:01:36.098Z,3.54
2019-03-12T17:04:05.729Z,3.43
2019-03-12T17:06:35.234Z,3.33
2019-03-12T17:09:05.903Z,3.34
2019-03-12T17:11:35.500Z,3.36
2019-03-12T17:14:05.130Z,3.28
2019-03-12T17:16:34.653Z,3.43
2019-03-12T17:19:04.252Z,3.54
2019-03-12T17:21:33.805Z,3.55
2019-03-12T17:24:03.331Z,3.58
2019-03-12T17:26:32.962Z,3.61
2019-03-12T17:29:02.545Z,3.50
2019-03-12T17:31:32.088Z,3.33
2019-03-12T17:34:01.623Z,3.26
2019-03-12T17:36:31.161Z,3.33
2019-03-12T17:39:00.713Z,3.30
2019-03-12T17:41:30.315Z,3.30
2019-03-12T17:43:59.852Z,3.32
2019-03-12T17:46:29.612Z,3.41
2019-03-12T17:48:59.480Z,3.41
2019-03-12T17:51:29.121Z,3.45
2019-03-12T17:53:58.764Z,3.31
2019-03-12T17:56:28.245Z,3.23
2019-03-12T17:58:57.880Z,3.35
2019-03-12T18:01:30.224Z,3.42
2019-03-12T18:03:58.783Z,3.53
2019-03-12T18:06:28.345Z,3.55
2019-03-12T18:08:57.882Z,3.64
2019-03-12T18:11:27.426Z,3.71
2019-03-12T18:13:57.275Z,3.73
2019-03-12T18:16:39.959Z,3.74
2019-03-12T18:18:58.227Z,3.72
2019-03-12T18:21:27.888Z,3.82
2019-03-12T18:23:57.494Z,3.60
2019-03-12T18:26:27.100Z,3.41
2019-03-12T18:28:59.135Z,3.25
2019-03-12T18:31:28.030Z,3.30
2019-03-12T18:33:57.849Z,3.13
2019-03-12T18:36:27.446Z,3.07
2019-03-12T18:38:57.109Z,3.07
2019-03-12T18:41:26.886Z,3.07
2019-03-12T18:43:56.561Z,3.09
2019-03-12T18:46:26.218Z,3.07
2019-03-12T18:48:55.892Z,3.09
2019-03-12T18:51:25.452Z,3.20
2019-03-12T18:53:55.069Z,3.23
2019-03-12T18:56:24.563Z,3.09
2019-03-12T18:58:54.107Z,2.94
2019-03-12T19:01:23.665Z,3.00
2019-03-12T19:03:53.159Z,2.96
2019-03-12T19:06:22.736Z,2.94
2019-03-12T19:08:52.213Z,2.87
2019-03-12T19:11:22.007Z,2.71
2019-03-12T19:13:51.591Z,2.69
2019-03-12T19:16:21.173Z,2.61
2019-03-12T19:18:50.847Z,2.61
2019-03-12T19:21:20.354Z,2.68
2019-03-12T19:23:49.949Z,2.73
2019-03-12T19:26:19.495Z,2.68
2019-03-12T19:28:49.065Z,2.66
2019-03-12T19:31:37.526Z,2.55
2019-03-12T19:34:20.443Z,2.62
2019-03-12T19:36:50.293Z,2.59
2019-03-12T19:39:20.201Z,2.58
2019-03-12T19:41:49.712Z,2.61
2019-03-12T19:44:19.391Z,2.60
2019-03-12T19:46:48.978Z,2.61
2019-03-12T19:49:18.516Z,2.69
2019-03-12T19:51:48.053Z,2.75
2019-03-12T19:54:17.525Z,2.76
2019-03-12T19:56:47.054Z,2.71
2019-03-12T19:59:16.655Z,2.70
2019-03-12T20:01:46.782Z,2.63
2019-03-12T20:04:16.235Z,2.73
2019-03-12T20:06:45.914Z,2.74
2019-03-12T20:09:26.623Z,2.78
2019-03-12T20:12:33.255Z,2.73
2019-03-12T20:15:51.689Z,2.78
2019-03-12T20:19:14.060Z,2.88
2019-03-12T20:22:36.293Z,2.95
2019-03-12T20:25:41.577Z,2.91
2019-03-12T20:28:47.429Z,2.90
2019-03-12T20:31:45.467Z,2.92
2019-03-12T20:34:50.773Z,2.93
2019-03-12T20:38:09.068Z,2.97
2019-03-12T20:41:21.199Z,2.98
2019-03-12T20:44:27.761Z,3.02
2019-03-12T20:47:44.483Z,2.99
2019-03-12T20:51:07.117Z,3.01
2019-03-12T20:54:13.086Z,3.11
2019-03-12T20:57:31.203Z,3.09
2019-03-12T21:00:27.076Z,3.07
2019-03-12T21:03:32.575Z,3.07
2019-03-12T21:06:35.462Z,3.11
2019-03-12T21:09:54.957Z,3.09
2019-03-12T21:13:10.166Z,3.13
2019-03-12T21:16:07.220Z,3.12
2019-03-12T21:19:17.796Z,3.10
2019-03-12T21:22:32.891Z,3.11
2019-03-12T21:25:33.287Z,3.12
2019-03-12T21:28:32.463Z,3.18
2019-03-12T21:31:01.989Z,3.20
2019-03-12T21:33:31.529Z,3.18
2019-03-12T21:36:00.981Z,3.26
2019-03-12T21:38:30.488Z,3.23
2019-03-12T21:40:59.994Z,3.24
2019-03-12T21:43:29.499Z,3.22
2019-03-12T21:45:59.088Z,3.17
2019-03-12T21:48:28.626Z,3.16
2019-03-12T21:50:58.151Z,3.11
2019-03-12T21:53:27.672Z,3.14
2019-03-12T21:55:57.320Z,3.11
2019-03-12T21:58:26.787Z,3.20
2019-03-12T22:00:56.390Z,3.22
2019-03-12T22:03:25.874Z,3.23
2019-03-12T22:05:55.426Z,3.17
2019-03-12T22:08:25.381Z,3.17
2019-03-12T22:10:55.409Z,3.18
2019-03-12T22:13:24.904Z,3.19
2019-03-12T22:15:54.402Z,3.19
2019-03-12T22:18:23.922Z,3.15
2019-03-12T22:20:53.462Z,3.15
2019-03-12T22:23:29.575Z,3.16
2019-03-12T22:25:59.099Z,2.99
2019-03-12T22:28:28.580Z,3.05
2019-03-12T22:30:58.085Z,3.01
2019-03-12T22:33:27.601Z,3.04
2019-03-12T22:35:57.109Z,3.07
2019-03-12T22:38:26.675Z,3.04
2019-03-12T22:40:56.136Z,3.06
2019-03-12T22:43:25.607Z,3.11
2019-03-12T22:45:55.095Z,3.10
2019-03-12T22:48:24.581Z,3.05
2019-03-12T22:50:54.065Z,3.06
2019-03-12T22:53:23.556Z,2.97
2019-03-12T22:55:53.098Z,3.04
2019-03-12T22:58:22.550Z,3.06
2019-03-12T23:00:53.155Z,3.09
2019-03-12T23:03:22.616Z,3.07
2019-03-12T23:05:52.087Z,3.06
2019-03-12T23:08:21.622Z,3.02
2019-03-12T23:10:51.814Z,2.98
2019-03-12T23:13:21.275Z,3.06
2019-03-12T23:15:50.773Z,3.06
2019-03-12T23:18:20.278Z,3.05
2019-03-12T23:20:50.205Z,3.02
2019-03-12T23:23:19.791Z,3.05
2019-03-12T23:25:49.318Z,3.07
2019-03-12T23:28:18.807Z,3.09
2019-03-12T23:30:48.268Z,3.07
2019-03-12T23:33:17.793Z,2.99
2019-03-12T23:35:47.301Z,2.99
2019-03-12T23:38:16.781Z,2.93
2019-03-12T23:40:46.256Z,2.92
2019-03-12T23:43:15.817Z,2.94
2019-03-12T23:45:45.312Z,2.93
2019-03-12T23:48:14.846Z,2.74
2019-03-12T23:50:44.326Z,2.60
2019-03-12T23:53:13.828Z,2.55
2019-03-12T23:55:43.425Z,2.57
2019-03-12T23:58:12.934Z,2.47
